Time;durP1;ratioP1;P1;durP2;ratioP2;P2;SDS_P1;SDS_P2;PMS_P1;PMS_P2;Temp;Humidity;BMP_temperature;BMP_pressure;BME280_temperature;BME280_humidity;BME280_pressure;Samples;Min_cycle;Max_cycle;Signal;HPM_P1;HPM_P2
2022/07/31 00:04:53;;;;;;;3.67;1.67;;;;;;;-147.53;100.00;57128.34;10419675;28;20041;-88
2022/07/31 00:09:55;;;;;;;6.80;2.22;;;;;;;-147.53;100.00;57128.34;10435953;28;20539;-88
2022/07/31 00:14:57;;;;;;;5.88;2.35;;;;;;;-147.53;100.00;57128.34;10416459;28;20033;-87
2022/07/31 00:19:59;;;;;;;5.10;2.08;;;;;;;-147.53;100.00;57128.34;10417253;28;20568;-88
2022/07/31 00:25:01;;;;;;;7.30;2.22;;;;;;;-147.53;100.00;57128.34;10439252;28;20070;-88
2022/07/31 00:30:04;;;;;;;4.18;2.08;;;;;;;-147.53;100.00;57128.34;10445362;28;20151;-88
2022/07/31 00:35:06;;;;;;;6.00;2.22;;;;;;;-147.53;100.00;57128.34;10416601;28;20511;-88
2022/07/31 00:40:12;;;;;;;4.43;1.92;;;;;;;15.77;70.41;99516.00;10418044;28;20559;-88
2022/07/31 00:45:13;;;;;;;7.78;1.90;;;;;;;15.55;70.99;99499.81;10430220;28;20057;-87
2022/07/31 00:50:16;;;;;;;5.60;2.15;;;;;;;15.57;71.09;99503.28;10421368;28;20045;-88
2022/07/31 00:55:18;;;;;;;5.55;2.15;;;;;;;15.60;71.46;99524.31;10436650;28;20052;-87
2022/07/31 01:00:22;;;;;;;4.78;2.10;;;;;;;15.64;71.34;99546.22;10422564;28;20049;-87
2022/07/31 01:05:24;;;;;;;3.25;1.98;;;;;;;15.69;71.45;99568.97;10425200;28;20128;-88
2022/07/31 01:11:00;;;;;;;9.43;2.20;;;;;;;15.71;71.49;99588.25;10420468;28;20051;-87
2022/07/31 01:16:08;;;;;;;8.00;2.43;;;;;;;15.72;71.79;99603.19;10422543;28;20055;-86
2022/07/31 01:21:15;;;;;;;5.15;2.10;;;;;;;15.75;71.87;99618.09;10453452;28;20041;-87
2022/07/31 01:26:29;;;;;;;5.82;2.33;;;;;;;15.80;71.77;99641.78;10436621;28;20663;-87
2022/07/31 01:31:48;;;;;;;5.35;2.05;;;;;;;15.73;71.97;99623.41;10409443;28;20045;-88
2022/07/31 01:37:03;;;;;;;7.93;2.42;;;;;;;15.70;72.01;99614.66;10418529;28;20148;-88
2022/07/31 01:42:16;;;;;;;4.35;2.08;;;;;;;15.69;72.08;99615.59;10423135;28;20107;-88
2022/07/31 01:47:32;;;;;;;4.32;2.15;;;;;;;15.70;72.10;99622.59;10425278;28;20052;-88
2022/07/31 01:52:36;;;;;;;5.22;2.25;;;;;;;15.73;72.17;99652.44;10432160;28;20450;-87
2022/07/31 01:57:40;;;;;;;6.85;2.60;;;;;;;15.74;72.22;99655.94;10383571;28;20049;-88
2022/07/31 02:02:44;;;;;;;5.65;2.30;;;;;;;15.71;72.20;99646.31;10423119;28;20218;-88
2022/07/31 02:07:49;;;;;;;5.70;2.33;;;;;;;15.67;72.15;99634.09;10413627;28;20045;-88
2022/07/31 02:12:55;;;;;;;4.90;2.35;;;;;;;15.69;72.47;99653.41;10398741;28;20033;-88
2022/07/31 02:17:59;;;;;;;5.53;2.20;;;;;;;15.67;72.41;99644.66;10419482;28;20044;-87
2022/07/31 02:23:07;;;;;;;6.85;2.30;;;;;;;15.61;100.00;99623.66;10439334;28;20037;-87
2022/07/31 02:28:12;;;;;;;4.22;2.33;;;;;;;-147.53;100.00;57128.34;10405650;28;20048;-87
2022/07/31 02:33:19;;;;;;;5.38;2.28;;;;;;;-147.53;100.00;57128.34;10417724;28;20084;-87
2022/07/31 02:38:25;;;;;;;6.72;2.17;;;;;;;15.61;72.31;99623.66;10432458;28;20049;-87
2022/07/31 02:43:31;;;;;;;9.75;2.60;;;;;;;15.53;72.61;99609.78;10432224;28;20045;-87
2022/07/31 02:48:38;;;;;;;6.85;2.53;;;;;;;15.49;72.54;99605.47;10416992;28;20087;-87
2022/07/31 02:53:43;;;;;;;4.65;2.30;;;;;;;15.53;72.73;99626.47;10450296;28;20041;-87
2022/07/31 02:58:44;;;;;;;4.15;2.05;;;;;;;15.53;72.80;99625.63;10430966;28;20434;-87
2022/07/31 03:03:59;;;;;;;5.47;2.60;;;;;;;15.60;73.02;99669.44;10431096;28;20052;-87
2022/07/31 03:09:02;;;;;;;7.53;2.10;;;;;;;15.58;72.84;99659.81;10435094;28;20551;-87
2022/07/31 03:14:07;;;;;;;4.68;2.30;;;;;;;15.61;72.86;99678.22;10431916;28;20069;-87
2022/07/31 03:19:11;;;;;;;6.07;2.88;;;;;;;15.61;72.98;99680.84;10426014;28;20041;-87
2022/07/31 03:24:13;;;;;;;9.40;2.75;;;;;;;15.60;73.23;99684.38;10439635;28;20049;-87
2022/07/31 03:29:14;;;;;;;5.68;2.47;;;;;;;15.60;73.19;99684.38;10403682;28;20053;-87
2022/07/31 03:34:36;;;;;;;5.90;2.33;;;;;;;15.57;73.23;99682.69;10434904;28;20033;-87
2022/07/31 03:39:38;;;;;;;8.57;3.38;;;;;;;15.56;73.50;99678.31;10410237;28;20100;-87
2022/07/31 03:44:45;;;;;;;6.00;2.50;;;;;;;15.53;73.47;99681.00;10429123;28;20040;-87
2022/07/31 03:49:51;;;;;;;4.47;2.30;;;;;;;15.52;73.39;99679.25;10421422;28;20040;-88
2022/07/31 03:54:53;;;;;;;7.45;2.97;;;;;;;15.52;73.52;99684.53;10430452;28;20447;-87
2022/07/31 03:59:56;;;;;;;6.63;2.70;;;;;;;15.53;73.65;99699.47;10442487;28;20049;-85
2022/07/31 04:05:01;;;;;;;5.97;2.55;;;;;;;15.53;73.66;99699.47;10419924;28;20053;-88
2022/07/31 04:10:09;;;;;;;6.43;2.60;;;;;;;15.53;73.79;99704.75;10411568;28;20516;-87
2022/07/31 04:15:11;;;;;;;6.13;2.70;;;;;;;15.50;73.84;99694.28;10425454;28;20067;-88
2022/07/31 04:20:13;;;;;;;6.38;2.85;;;;;;;15.50;73.73;99696.91;10414828;28;20041;-88
2022/07/31 04:25:15;;;;;;;8.48;3.25;;;;;;;15.47;74.28;99696.97;10423685;28;20696;-88
2022/07/31 04:30:27;;;;;;;9.50;3.47;;;;;;;15.42;74.14;99680.34;10431460;28;20052;-88
2022/07/31 04:35:29;;;;;;;5.28;3.00;;;;;;;15.40;74.40;99676.88;10403865;28;20065;-88
2022/07/31 04:40:31;;;;;;;11.13;3.35;;;;;;;15.40;74.24;99684.81;10418662;28;20052;-88
2022/07/31 04:45:33;;;;;;;6.82;3.10;;;;;;;15.43;74.35;99709.34;10441162;28;20037;-87
2022/07/31 04:50:36;;;;;;;6.18;3.38;;;;;;;15.52;74.51;99735.56;10434442;28;20045;-87
2022/07/31 04:55:38;;;;;;;7.53;3.70;;;;;;;15.62;74.50;99789.00;10447295;28;20048;-87
2022/07/31 05:00:42;;;;;;;12.13;3.67;;;;;;;15.81;74.50;99866.09;10429242;28;20432;-88
2022/07/31 05:05:45;;;;;;;9.60;4.80;;;;;;;16.15;74.66;100012.44;10426281;28;20045;-87
2022/07/31 05:16:10;;;;;;;9.68;4.82;;;;;;;16.56;74.71;100190.50;10402335;28;20075;-87
2022/07/31 05:21:15;;;;;;;6.75;3.45;;;;;;;16.70;74.98;100246.63;10424755;28;20048;-87
2022/07/31 05:26:37;;;;;;;5.15;3.13;;;;;;;16.84;74.87;100308.97;10437774;28;20579;-87
2022/07/31 05:31:39;;;;;;;6.68;3.40;;;;;;;16.96;75.15;100354.66;10437536;28;20045;-88
2022/07/31 05:37:01;;;;;;;6.75;3.25;;;;;;;17.08;74.74;100411.78;10431325;28;20574;-88
2022/07/31 05:42:12;;;;;;;7.75;3.10;;;;;;;17.21;74.72;100459.19;10421815;28;20056;-92
2022/07/31 05:47:43;;;;;;;8.55;2.97;;;;;;;17.27;74.67;100494.34;10415388;28;20044;-85
2022/07/31 05:52:44;;;;;;;7.28;3.05;;;;;;;17.40;74.83;100547.09;10421559;28;20156;-87
2022/07/31 05:58:04;;;;;;;9.57;3.25;;;;;;;17.54;74.56;100605.13;10442290;28;20040;-87
2022/07/31 06:03:06;;;;;;;9.98;3.08;;;;;;;17.70;74.45;100670.22;10420637;28;20072;-86
2022/07/31 06:08:38;;;;;;;9.98;2.95;;;;;;;17.89;74.74;100744.09;10426389;28;20048;-86
2022/07/31 06:13:42;;;;;;;5.72;2.67;;;;;;;18.03;74.51;100803.09;10419410;28;20041;-86
2022/07/31 06:18:53;;;;;;;5.70;2.58;;;;;;;18.19;74.27;100868.25;10429325;28;20040;-86
2022/07/31 06:23:55;;;;;;;5.05;2.53;;;;;;;18.45;74.22;100980.13;10424565;28;20102;-85
2022/07/31 06:29:03;;;;;;;4.63;2.40;;;;;;;18.64;74.20;101052.38;10435573;28;20416;-85
2022/07/31 06:34:05;;;;;;;5.13;2.60;;;;;;;18.75;74.05;101095.56;10440851;28;20120;-86
2022/07/31 06:39:20;;;;;;;9.60;2.43;;;;;;;18.86;74.19;101138.78;10399632;28;20040;-86
2022/07/31 06:45:03;;;;;;;4.72;2.65;;;;;;;19.03;73.84;101201.41;10447880;28;20451;-86
2022/07/31 06:50:24;;;;;;;6.03;2.90;;;;;;;19.15;73.39;101246.38;10429876;28;20092;-87
2022/07/31 06:55:33;;;;;;;8.02;2.70;;;;;;;19.32;73.46;101311.69;10402948;28;20043;-87
2022/07/31 07:00:34;;;;;;;11.57;2.80;;;;;;;19.39;73.47;101340.78;10429313;28;20044;-84
2022/07/31 07:05:36;;;;;;;11.68;2.85;;;;;;;19.52;73.17;101386.72;10424384;28;20033;-86
2022/07/31 07:10:38;;;;;;;7.60;2.45;;;;;;;19.69;73.01;101447.63;10435848;28;20094;-86
2022/07/31 07:15:51;;;;;;;6.28;2.30;;;;;;;19.81;72.68;101499.78;10418922;28;20037;-85
2022/07/31 07:20:57;;;;;;;9.50;2.80;;;;;;;19.85;72.79;101509.50;10417864;28;20583;-85
2022/07/31 07:26:00;;;;;;;7.60;2.95;;;;;;;19.98;72.57;101563.41;10416930;28;20591;-85
2022/07/31 07:31:03;;;;;;;6.72;2.70;;;;;;;20.17;72.14;101633.22;10419187;28;20076;-84
2022/07/31 07:36:05;;;;;;;7.35;2.60;;;;;;;20.42;72.32;101734.09;10419374;28;20036;-84
2022/07/31 07:41:07;;;;;;;8.95;2.53;;;;;;;20.63;72.03;101811.03;10449848;28;20544;-85
2022/07/31 07:46:09;;;;;;;8.23;2.60;;;;;;;20.83;72.05;101887.19;10422665;28;20128;-84
2022/07/31 07:51:14;;;;;;;8.30;2.50;;;;;;;21.03;71.57;101969.56;10412063;28;20045;-85
2022/07/31 07:56:29;;;;;;;8.38;2.90;;;;;;;21.21;71.55;102031.56;10428530;28;20065;-83
2022/07/31 08:01:52;;;;;;;4.82;2.35;;;;;;;21.35;71.37;102080.31;10406229;28;20128;-84
2022/07/31 08:06:58;;;;;;;5.45;2.25;;;;;;;21.49;71.06;102130.84;10416532;28;20044;-85
2022/07/31 08:12:07;;;;;;;12.50;2.88;;;;;;;21.62;70.80;102171.63;10417380;28;20528;-83
2022/07/31 08:17:27;;;;;;;8.40;2.47;;;;;;;21.60;70.57;102163.63;10436632;28;20045;-85
2022/07/31 08:22:30;;;;;;;9.30;2.42;;;;;;;21.58;70.46;102128.13;10414285;28;20033;-84
2022/07/31 08:27:32;;;;;;;6.85;2.80;;;;;;;21.57;69.94;102126.34;10421131;28;20127;-84
2022/07/31 08:32:41;;;;;;;10.98;2.47;;;;;;;21.69;69.96;102157.34;10452586;28;20304;-84
2022/07/31 08:37:43;;;;;;;5.43;2.40;;;;;;;21.78;69.87;102197.28;10452938;28;20320;-84
2022/07/31 08:43:05;;;;;;;8.85;2.80;;;;;;;21.92;69.89;102247.84;10450506;28;20511;-84
2022/07/31 08:48:30;;;;;;;7.35;2.50;;;;;;;22.01;69.55;102270.91;10425350;28;20037;-84
2022/07/31 08:53:35;;;;;;;8.25;2.67;;;;;;;22.09;69.26;102289.53;10435415;28;20069;-84
2022/07/31 08:58:46;;;;;;;5.72;2.42;;;;;;;22.07;69.13;102278.88;10429206;28;20483;-84
2022/07/31 09:03:48;;;;;;;13.55;2.60;;;;;;;22.09;68.85;102273.50;10428962;28;20090;-84
2022/07/31 09:08:50;;;;;;;8.80;2.80;;;;;;;22.19;68.62;102315.22;10417711;28;20205;-85
2022/07/31 09:13:56;;;;;;;5.95;2.58;;;;;;;22.34;68.47;102360.50;10419416;28;20069;-85
2022/07/31 09:19:36;;;;;;;5.32;2.33;;;;;;;22.70;68.18;102502.63;10438663;28;20041;-84
2022/07/31 09:25:18;;;;;;;6.78;2.50;;;;;;;23.19;68.22;102698.25;10420956;28;20037;-85
2022/07/31 09:30:19;;;;;;;12.68;2.28;;;;;;;23.68;67.83;102887.78;10437239;28;20052;-84
2022/07/31 09:35:45;;;;;;;7.95;2.67;;;;;;;24.08;67.38;103052.63;10437189;28;20454;-85
2022/07/31 09:40:47;;;;;;;7.72;2.30;;;;;;;24.20;67.18;103082.03;10428597;28;20041;-83
2022/07/31 09:46:17;;;;;;;5.50;2.22;;;;;;;24.11;66.51;103016.06;10429804;28;20676;-84
2022/07/31 09:51:19;;;;;;;10.00;2.30;;;;;;;23.99;66.44;102946.53;10442299;28;20076;-84
2022/07/31 09:56:31;;;;;;;8.68;2.72;;;;;;;23.96;66.16;102914.44;10423709;28;20646;-84
2022/07/31 10:01:35;;;;;;;4.47;2.30;;;;;;;23.90;65.64;102877.91;10432652;28;20048;-84
2022/07/31 10:06:39;;;;;;;4.78;2.30;;;;;;;23.71;65.56;102775.44;10431361;28;20037;-83
2022/07/31 10:11:43;;;;;;;8.70;2.60;;;;;;;23.60;65.29;102706.00;10429860;28;20037;-84
2022/07/31 10:16:53;;;;;;;5.25;2.70;;;;;;;23.76;65.09;102767.41;10428102;28;20044;-83
2022/07/31 10:22:19;;;;;;;6.55;2.90;;;;;;;23.99;64.65;102861.81;10413175;28;20045;-83
2022/07/31 10:27:23;;;;;;;9.13;2.80;;;;;;;24.23;64.58;102944.59;10416995;28;20056;-83
2022/07/31 10:32:32;;;;;;;;;;;;;;;24.74;64.33;103143.44;10449954;28;20037;-82
2022/07/31 10:38:27;;;;;;;8.50;2.42;;;;;;;25.17;63.82;103306.66;10450147;28;20600;-84
2022/07/31 10:43:44;;;;;;;5.63;2.35;;;;;;;25.84;63.65;103577.41;10453446;28;20095;-84
2022/07/31 10:48:57;;;;;;;10.05;2.75;;;;;;;25.71;63.04;103480.81;10416256;28;20048;-81
2022/07/31 10:54:17;;;;;;;11.18;2.40;;;;;;;25.32;62.83;103286.09;10429732;28;20052;-81
2022/07/31 10:59:44;;;;;;;4.30;2.30;;;;;;;25.24;62.28;103233.34;10415150;28;20048;-81
2022/07/31 11:05:21;;;;;;;6.40;2.25;;;;;;;25.05;62.30;103128.03;10417280;28;20052;-81
2022/07/31 11:10:48;;;;;;;8.93;2.70;;;;;;;24.52;61.75;102883.72;10441053;28;20041;-81
2022/07/31 11:16:08;;;;;;;5.03;2.53;;;;;;;24.22;61.46;102740.31;10438429;28;20072;-81
2022/07/31 11:21:39;;;;;;;6.97;3.33;;;;;;;24.07;61.15;102665.53;10402454;28;20053;-84
2022/07/31 11:26:54;;;;;;;8.68;4.07;;;;;;;23.93;60.65;102604.09;10420598;28;20037;-85
2022/07/31 11:32:06;;;;;;;11.20;4.70;;;;;;;23.53;60.51;102428.03;10425546;28;20053;-84
2022/07/31 11:37:07;;;;;;;7.60;4.15;;;;;;;23.24;60.76;102304.50;10427688;28;20037;-83
2022/07/31 11:42:09;;;;;;;11.57;4.25;;;;;;;23.02;60.71;102210.34;10428888;28;20112;-83
2022/07/31 11:47:12;;;;;;;11.25;4.57;;;;;;;22.97;60.51;102188.16;10429074;28;20045;-84
2022/07/31 11:52:33;;;;;;;9.90;4.53;;;;;;;22.80;60.75;102112.69;10403039;28;20443;-85
2022/07/31 11:57:41;;;;;;;8.23;4.20;;;;;;;22.49;60.85;101995.63;10425437;28;20523;-83
2022/07/31 12:02:53;;;;;;;10.57;4.28;;;;;;;22.15;60.71;101849.34;10431907;28;20126;-83
2022/07/31 12:07:55;;;;;;;10.95;5.40;;;;;;;21.91;60.88;101750.13;10440680;28;20044;-84
2022/07/31 12:12:57;;;;;;;9.88;3.63;;;;;;;21.76;61.01;101697.06;10429209;28;20048;-84
2022/07/31 12:18:01;;;;;;;7.57;3.20;;;;;;;21.56;61.35;101625.38;10431445;28;20625;-84
2022/07/31 12:23:04;;;;;;;9.27;3.30;;;;;;;21.47;61.63;101599.75;10427352;28;20439;-86
2022/07/31 12:28:07;;;;;;;7.85;3.78;;;;;;;21.51;61.83;101630.78;10434765;28;20101;-85
2022/07/31 12:33:11;;;;;;;10.70;3.72;;;;;;;21.45;62.33;101615.75;10420705;28;20044;-85
2022/07/31 12:38:22;;;;;;;9.60;3.78;;;;;;;21.46;62.68;101621.97;10434527;28;20049;-84
2022/07/31 12:43:42;;;;;;;9.23;3.92;;;;;;;21.48;63.01;101644.13;10431827;28;20048;-86
2022/07/31 12:48:52;;;;;;;10.10;4.63;;;;;;;21.25;63.29;101556.56;10432942;28;20037;-86
2022/07/31 12:53:54;;;;;;;10.60;4.78;;;;;;;21.05;63.55;101487.63;10443169;28;20225;-86
2022/07/31 12:58:57;;;;;;;9.48;5.40;;;;;;;20.88;63.94;101419.56;10432406;28;20049;-89
2022/07/31 13:04:00;;;;;;;12.20;5.93;;;;;;;20.90;64.27;101439.06;10422653;28;20029;-88
2022/07/31 13:09:04;;;;;;;9.63;6.07;;;;;;;20.99;64.83;101491.28;10413100;28;20051;-89
2022/07/31 13:14:05;;;;;;;12.73;6.45;;;;;;;20.96;65.03;101478.88;10435477;28;20048;-86
2022/07/31 13:19:09;;;;;;;11.35;7.00;;;;;;;21.06;65.43;101532.84;10423193;28;20079;-88
2022/07/31 13:24:12;;;;;;;12.85;6.97;;;;;;;21.23;65.74;101611.63;10419757;28;20041;-88
2022/07/31 13:29:15;;;;;;;16.10;8.23;;;;;;;21.56;66.12;101758.63;10433300;28;20135;-87
2022/07/31 13:34:16;;;;;;;17.08;8.55;;;;;;;21.49;66.20;101742.69;10423972;28;20037;-88
2022/07/31 13:39:18;;;;;;;12.40;8.15;;;;;;;21.36;66.83;101688.69;10415896;28;20042;-89
2022/07/31 13:44:20;;;;;;;16.13;9.23;;;;;;;21.33;67.11;101683.41;10416351;28;20045;-90
2022/07/31 13:49:30;;;;;;;14.75;9.15;;;;;;;21.17;67.24;101621.47;10432354;28;20455;-91
2022/07/31 13:54:35;;;;;;;16.42;8.88;;;;;;;21.30;67.52;101686.13;10407020;28;20577;-91
2022/07/31 13:59:45;;;;;;;13.27;8.88;;;;;;;21.33;67.95;101710.06;10410150;28;20072;-91
2022/07/31 14:05:08;;;;;;;15.55;10.05;;;;;;;21.36;68.26;101731.31;10426501;28;20048;-92
2022/07/31 14:10:13;;;;;;;19.20;10.38;;;;;;;21.07;68.33;101614.50;10426272;28;20068;-86
2022/07/31 14:15:22;;;;;;;15.77;10.65;;;;;;;20.81;68.82;101508.41;10428041;28;20072;-87
2022/07/31 14:20:28;;;;;;;18.98;11.75;;;;;;;20.48;69.03;101380.22;10428019;28;20057;-89
2022/07/31 14:25:39;;;;;;;19.17;12.70;;;;;;;20.26;69.58;101303.41;10432333;28;20106;-89
2022/07/31 14:30:45;;;;;;;18.65;11.80;;;;;;;20.00;70.08;101193.97;10399387;28;20106;-86
2022/07/31 14:35:51;;;;;;;18.63;12.57;;;;;;;19.73;70.21;101092.47;10438715;28;20396;-87
2022/07/31 14:40:56;;;;;;;19.13;11.55;;;;;;;19.48;70.27;101009.66;10412153;28;20049;-86
2022/07/31 14:45:57;;;;;;;21.58;13.88;;;;;;;19.28;70.76;100927.69;10410418;28;20037;-86
2022/07/31 14:51:03;;;;;;;20.25;13.70;;;;;;;19.16;70.99;100891.59;10395829;28;20045;-87
2022/07/31 14:56:28;;;;;;;18.10;14.43;;;;;;;18.94;71.76;100827.41;10413727;28;20165;-86
2022/07/31 15:01:50;;;;;;;25.67;13.88;;;;;;;18.90;72.18;100816.84;10404314;28;20037;-87
2022/07/31 15:06:55;;;;;;;19.08;13.52;;;;;;;18.69;72.37;100740.22;10428722;28;20041;-88
2022/07/31 15:12:18;;;;;;;21.63;14.25;;;;;;;18.50;72.84;100668.09;10396299;28;20539;-88
2022/07/31 15:17:20;;;;;;;20.05;13.90;;;;;;;18.33;73.30;100608.31;10432035;28;20047;-88
2022/07/31 15:22:22;;;;;;;19.80;14.82;;;;;;;18.26;73.39;100587.25;10404394;28;20737;-89
2022/07/31 15:27:24;;;;;;;20.70;15.77;;;;;;;18.28;73.68;100615.44;10434322;28;20467;-89
2022/07/31 15:32:26;;;;;;;20.67;15.48;;;;;;;18.28;74.22;100622.53;10438881;28;20092;-87
2022/07/31 15:37:29;;;;;;;21.85;16.55;;;;;;;18.27;74.56;100631.38;10436465;28;20095;-88
2022/07/31 15:42:33;;;;;;;25.13;17.75;;;;;;;18.22;74.93;100617.34;10421401;28;20049;-87
2022/07/31 15:47:42;;;;;;;21.98;14.55;;;;;;;18.21;75.26;100621.78;10427371;28;20578;-92
2022/07/31 15:52:43;;;;;;;19.40;13.97;;;;;;;18.24;75.69;100642.91;10421801;28;20065;-88
2022/07/31 15:57:45;;;;;;;20.60;13.98;;;;;;;18.19;76.08;100634.16;10419065;28;20058;-87
2022/07/31 16:02:48;;;;;;;16.40;11.40;;;;;;;18.15;76.44;100625.41;10421827;28;21654;-86
2022/07/31 16:07:50;;;;;;;15.70;11.73;;;;;;;18.17;76.52;100641.28;10427235;28;20068;-87
2022/07/31 16:13:12;;;;;;;14.68;10.23;;;;;;;18.10;76.81;100626.38;10418098;28;20152;-89
2022/07/31 16:18:13;;;;;;;15.30;10.40;;;;;;;18.11;77.44;100638.72;10419646;28;20132;-87
2022/07/31 16:23:19;;;;;;;15.80;10.80;;;;;;;18.15;77.51;100662.50;10440017;28;20041;-86
2022/07/31 16:28:21;;;;;;;15.68;10.77;;;;;;;18.17;78.01;100683.66;10416143;28;20124;-87
2022/07/31 16:33:22;;;;;;;13.48;10.43;;;;;;;18.22;78.21;100704.78;10438855;28;20500;-89
2022/07/31 16:38:24;;;;;;;16.55;11.73;;;;;;;18.21;78.73;100714.53;10428818;28;20123;-88
2022/07/31 16:43:26;;;;;;;13.82;10.02;;;;;;;18.25;78.74;100736.53;10422321;28;20044;-87
2022/07/31 16:48:48;;;;;;;17.05;11.40;;;;;;;18.34;79.37;100786.75;10420181;28;20037;-89
2022/07/31 16:53:49;;;;;;;14.65;10.65;;;;;;;18.35;79.56;100799.13;10433134;28;20505;-90
2022/07/31 16:59:11;;;;;;;15.73;11.93;;;;;;;18.43;79.70;100842.28;10430955;28;20044;-88
2022/07/31 17:04:14;;;;;;;16.52;11.88;;;;;;;18.49;79.80;100870.50;10403410;28;20064;-88
2022/07/31 17:09:15;;;;;;;18.08;12.68;;;;;;;18.51;80.38;100890.78;10436853;28;20092;-87
2022/07/31 17:14:21;;;;;;;17.65;12.60;;;;;;;18.51;80.84;100893.44;10429038;28;20099;-87
2022/07/31 17:19:25;;;;;;;19.63;12.80;;;;;;;18.58;81.22;100927.81;10434199;28;20064;-87
2022/07/31 17:24:49;;;;;;;18.65;12.65;;;;;;;18.61;81.14;100947.22;10426446;28;20357;-86
2022/07/31 17:29:52;;;;;;;16.77;12.60;;;;;;;18.67;81.56;100978.06;10412666;28;20116;-86
2022/07/31 17:34:53;;;;;;;18.88;13.95;;;;;;;18.70;81.89;101001.91;10436706;28;20504;-87
2022/07/31 17:39:55;;;;;;;19.23;13.38;;;;;;;18.75;81.99;101028.38;10412609;28;20084;-87
2022/07/31 17:45:00;;;;;;;17.67;12.50;;;;;;;18.78;82.24;101055.75;10427585;28;20771;-87
2022/07/31 17:50:03;;;;;;;19.67;14.10;;;;;;;18.84;82.58;101092.81;10428163;28;20087;-89
2022/07/31 17:55:05;;;;;;;18.70;13.80;;;;;;;18.95;82.65;101131.63;10427914;28;20179;-90
2022/07/31 18:00:08;;;;;;;20.75;13.68;;;;;;;19.01;83.12;101168.69;10428091;28;20032;-89
2022/07/31 18:05:10;;;;;;;23.20;14.57;;;;;;;19.03;83.48;101180.16;10422684;28;20099;-89
2022/07/31 18:10:12;;;;;;;19.83;14.40;;;;;;;19.02;83.56;101181.06;10427377;28;20084;-90
2022/07/31 18:20:45;;;;;;;24.92;15.25;;;;;;;19.03;84.22;101196.97;11211301;23;20187;-89
2022/07/31 18:25:57;;;;;;;19.50;13.43;;;;;;;19.03;84.22;101204.06;10210349;28;20047;-90
2022/07/31 18:31:01;;;;;;;23.50;16.15;;;;;;;19.04;84.69;101211.13;10222888;28;20054;-88
2022/07/31 18:36:03;;;;;;;23.13;15.30;;;;;;;19.08;84.52;101228.78;10253946;28;20055;-88
2022/07/31 18:41:05;;;;;;;20.45;13.75;;;;;;;19.06;84.93;101230.56;10253100;28;20105;-88
2022/07/31 18:46:07;;;;;;;20.65;12.90;;;;;;;19.08;84.83;101237.63;10240934;28;20039;-88
2022/07/31 18:51:08;;;;;;;22.17;13.40;;;;;;;19.07;85.21;101237.63;10245063;28;20051;-88
2022/07/31 18:56:10;;;;;;;21.38;12.90;;;;;;;19.04;84.92;101227.91;10252153;28;20127;-88
2022/07/31 19:01:12;;;;;;;19.65;12.85;;;;;;;19.04;85.07;101221.75;10234733;28;20313;-87
2022/07/31 19:06:14;;;;;;;17.33;11.68;;;;;;;19.01;85.65;101213.81;10251577;28;20042;-88
2022/07/31 19:11:18;;;;;;;16.33;10.75;;;;;;;18.99;85.56;101219.16;10258855;28;20417;-87
2022/07/31 19:16:20;;;;;;;15.68;9.45;;;;;;;18.89;86.10;101183.84;10241198;28;20043;-88
2022/07/31 19:21:22;;;;;;;13.65;7.47;;;;;;;18.81;86.19;101145.91;10224373;28;20193;-88
2022/07/31 19:26:43;;;;;;;10.50;5.70;;;;;;;18.76;86.08;101126.50;10254382;28;20043;-89
2022/07/31 19:31:46;;;;;;;11.32;5.28;;;;;;;18.73;86.60;101118.56;10215818;28;20134;-88
2022/07/31 19:36:47;;;;;;;8.80;4.25;;;;;;;18.70;86.60;101116.81;10231974;28;20053;-88
2022/07/31 19:41:50;;;;;;;6.75;4.00;;;;;;;18.68;87.00;101107.16;10255553;28;20409;-89
2022/07/31 19:47:11;;;;;;;7.25;3.78;;;;;;;18.64;86.93;101100.13;10258385;28;20047;-89
2022/07/31 19:52:14;;;;;;;7.50;3.65;;;;;;;18.62;87.13;101092.19;10234208;28;20074;-89
2022/07/31 19:57:17;;;;;;;8.27;3.40;;;;;;;18.59;87.39;101086.03;10254715;28;20439;-89
2022/07/31 20:02:19;;;;;;;6.80;3.60;;;;;;;18.56;87.59;101071.03;10228868;28;20078;-88
2022/07/31 20:07:21;;;;;;;5.15;3.15;;;;;;;18.53;87.55;101069.28;10243685;28;20831;-89
2022/07/31 20:12:24;;;;;;;10.18;4.00;;;;;;;18.51;88.00;101056.94;10247444;28;20057;-88
2022/07/31 20:17:26;;;;;;;5.68;2.83;;;;;;;18.55;88.02;101083.44;10236582;28;20039;-88
2022/07/31 20:22:28;;;;;;;6.30;3.25;;;;;;;18.51;88.15;101071.09;10254080;28;20050;-89
2022/07/31 20:27:30;;;;;;;8.40;3.28;;;;;;;18.53;88.07;101079.91;10261192;28;20086;-88
2022/07/31 20:32:32;;;;;;;4.90;2.92;;;;;;;18.50;88.47;101071.09;10259649;28;20066;-89
2022/07/31 20:37:34;;;;;;;5.32;3.05;;;;;;;18.50;88.32;101079.06;10260152;28;20129;-88
2022/07/31 20:42:36;;;;;;;6.53;3.20;;;;;;;18.53;88.40;101094.94;10255319;28;20051;-89
2022/07/31 20:47:38;;;;;;;6.97;3.10;;;;;;;18.49;88.66;101070.22;10266462;28;20050;-89
2022/07/31 20:52:39;;;;;;;5.15;2.83;;;;;;;18.44;88.80;101052.63;10227547;28;20051;-88
2022/07/31 20:57:45;;;;;;;6.65;2.90;;;;;;;18.44;88.88;101066.75;10252925;28;20483;-89
2022/07/31 21:02:47;;;;;;;6.90;3.15;;;;;;;18.48;89.07;101086.13;10261095;28;20054;-89
2022/07/31 21:07:51;;;;;;;5.22;2.30;;;;;;;18.46;89.38;101078.19;10249645;28;20058;-89
2022/07/31 21:12:57;;;;;;;3.85;2.28;;;;;;;18.44;89.40;101072.03;10245599;28;20054;-89
2022/07/31 21:17:58;;;;;;;2.80;1.88;;;;;;;18.43;89.51;101069.41;10259725;28;20039;-89
2022/07/31 21:23:02;;;;;;;2.60;1.45;;;;;;;18.37;89.49;101049.13;10265880;28;20111;-88
2022/07/31 21:28:04;;;;;;;1.42;1.02;;;;;;;18.32;90.01;101027.13;10268293;28;20058;-89
2022/07/31 21:33:08;;;;;;;3.22;1.20;;;;;;;18.26;89.96;101012.16;10260631;28;20426;-88
2022/07/31 21:38:10;;;;;;;3.35;1.10;;;;;;;18.27;90.22;101010.38;10263101;28;20455;-88
2022/07/31 21:43:13;;;;;;;5.60;1.00;;;;;;;18.24;90.33;101005.09;10254695;28;20050;-89
2022/07/31 21:48:21;;;;;;;2.88;0.90;;;;;;;18.22;90.38;100999.81;10250580;28;20043;-88
2022/07/31 21:53:23;;;;;;;1.77;1.20;;;;;;;18.21;90.42;100995.44;10256336;28;20418;-88
2022/07/31 21:58:25;;;;;;;1.27;0.80;;;;;;;18.23;90.51;101011.31;10265107;28;21440;-88
2022/07/31 22:03:26;;;;;;;1.90;0.93;;;;;;;18.22;90.42;101013.06;10264453;28;20121;-90
2022/07/31 22:08:28;;;;;;;2.72;1.08;;;;;;;18.23;90.41;101019.28;10230208;28;20459;-88
2022/07/31 22:13:30;;;;;;;3.15;1.45;;;;;;;18.21;90.51;101011.34;10254958;28;20073;-87
2022/07/31 22:18:33;;;;;;;2.13;1.35;;;;;;;18.22;90.75;101018.38;10261605;28;20090;-88
2022/07/31 22:23:35;;;;;;;3.97;1.60;;;;;;;18.19;91.06;101011.38;10253988;28;20133;-88
2022/07/31 22:28:37;;;;;;;3.85;1.65;;;;;;;18.21;91.16;101021.94;10299805;28;20074;-87
2022/07/31 22:33:39;;;;;;;2.80;1.90;;;;;;;18.17;90.96;101010.47;10289955;28;20053;-87
2022/07/31 22:38:43;;;;;;;3.90;2.20;;;;;;;18.17;91.34;101017.56;10273755;28;20038;-87
2022/07/31 22:43:45;;;;;;;3.97;2.38;;;;;;;18.14;91.41;100999.91;10281264;28;20057;-92
2022/07/31 22:49:07;;;;;;;3.53;2.33;;;;;;;18.12;91.42;100999.06;10274053;28;20050;-89
2022/07/31 22:54:09;;;;;;;4.50;2.47;;;;;;;18.15;91.35;101014.94;10295853;28;20552;-88
2022/07/31 22:59:11;;;;;;;4.53;2.63;;;;;;;18.13;91.73;101008.75;10282787;28;20134;-87
2022/07/31 23:04:13;;;;;;;3.55;2.30;;;;;;;18.13;91.78;101007.88;10269280;28;20047;-88
2022/07/31 23:09:14;;;;;;;2.97;2.08;;;;;;;18.15;91.59;101020.22;10277544;28;20038;-90
2022/07/31 23:14:17;;;;;;;4.18;2.00;;;;;;;18.12;91.98;101011.41;10296911;28;20545;-87
2022/07/31 23:19:18;;;;;;;3.10;2.00;;;;;;;18.10;92.07;101008.78;10261830;28;20093;-92
2022/07/31 23:24:20;;;;;;;3.15;2.05;;;;;;;18.12;92.11;101014.97;10297894;28;20686;-87
2022/07/31 23:29:22;;;;;;;5.57;2.08;;;;;;;18.09;91.81;101007.06;10290348;28;20093;-87
2022/07/31 23:34:24;;;;;;;3.42;1.73;;;;;;;18.07;92.07;101003.53;10284873;28;20461;-88
2022/07/31 23:39:26;;;;;;;3.10;1.58;;;;;;;18.05;92.16;100993.84;10265702;28;20051;-88